Time;durP1;ratioP1;P1;durP2;ratioP2;P2;SDS_P1;SDS_P2;PMS_P1;PMS_P2;Temp;Humidity;BMP_temperature;BMP_pressure;BME280_temperature;BME280_humidity;BME280_pressure;Samples;Min_cycle;Max_cycle;Signal;HPM_P1;HPM_P2
2022/07/10 00:02:08;;;;;;;6.03;3.25;;;;;;;22.35;56.47;98991.38;5050283;28;20047;-68
2022/07/10 00:04:33;;;;;;;4.28;3.05;;;;;;;22.38;56.00;98988.25;5051712;28;20044;-68
2022/07/10 00:07:01;;;;;;;6.13;3.10;;;;;;;22.36;55.69;98991.13;5050279;28;20025;-71
2022/07/10 00:09:28;;;;;;;5.65;3.20;;;;;;;22.38;55.85;98980.97;5051450;28;20036;-69
2022/07/10 00:11:53;;;;;;;7.00;3.47;;;;;;;22.34;55.86;98973.53;5049575;28;20036;-69
2022/07/10 00:14:20;;;;;;;6.93;3.50;;;;;;;22.18;55.80;98970.25;5051162;28;20496;-70
2022/07/10 00:16:45;;;;;;;5.43;3.17;;;;;;;22.15;56.12;98975.25;5050584;28;20029;-70
2022/07/10 00:19:11;;;;;;;9.95;3.10;;;;;;;22.13;56.27;98978.13;5049420;28;20073;-69
2022/07/10 00:21:36;;;;;;;3.95;3.40;;;;;;;22.15;56.57;98961.78;5051045;28;20452;-69
2022/07/10 00:24:02;;;;;;;5.82;2.70;;;;;;;22.08;56.55;98961.78;5052317;28;20036;-71
2022/07/10 00:26:27;;;;;;;5.00;3.30;;;;;;;22.07;56.61;98960.94;5051713;28;20064;-69
2022/07/10 00:28:53;;;;;;;6.15;3.50;;;;;;;22.08;57.10;98964.47;5051838;28;20036;-69
2022/07/10 00:31:19;;;;;;;5.70;3.33;;;;;;;22.06;57.07;98964.66;5052079;28;20037;-70
2022/07/10 00:33:44;;;;;;;9.75;3.35;;;;;;;22.07;57.19;98963.63;5052695;28;20032;-69
2022/07/10 00:36:10;;;;;;;8.73;3.30;;;;;;;22.00;57.74;98951.22;5051805;28;20036;-71
2022/07/10 00:38:35;;;;;;;6.45;3.80;;;;;;;21.98;57.59;98953.31;5051609;28;20043;-71
2022/07/10 00:41:00;;;;;;;5.38;3.00;;;;;;;21.94;57.73;98952.88;5050788;28;20037;-70
2022/07/10 00:43:26;;;;;;;6.82;3.13;;;;;;;21.93;57.79;98965.53;5032028;28;20403;-71
2022/07/10 00:45:51;;;;;;;8.88;4.22;;;;;;;21.91;58.20;98951.44;5032182;28;20103;-70
2022/07/10 00:48:17;;;;;;;9.40;4.85;;;;;;;21.89;58.33;98937.38;5048843;28;20043;-70
2022/07/10 00:50:44;;;;;;;4.95;3.22;;;;;;;21.88;58.54;98934.88;5052145;28;20032;-71
2022/07/10 00:53:11;;;;;;;6.57;3.40;;;;;;;21.89;58.59;98947.31;5051053;28;20465;-69
2022/07/10 00:55:38;;;;;;;8.60;3.83;;;;;;;21.91;58.53;98951.44;5051530;28;20029;-70
2022/07/10 00:58:06;;;;;;;3.58;2.72;;;;;;;21.93;58.25;98952.06;5051785;28;20028;-71
2022/07/10 01:00:33;;;;;;;7.00;3.58;;;;;;;21.89;58.40;98956.22;5052335;28;20047;-69
2022/07/10 01:02:58;;;;;;;4.88;3.28;;;;;;;21.89;58.70;98958.91;5051752;28;20033;-70
2022/07/10 01:05:24;;;;;;;5.68;3.20;;;;;;;21.85;58.50;98943.38;5051959;28;20036;-69
2022/07/10 01:07:49;;;;;;;6.65;3.78;;;;;;;21.76;58.34;98942.75;5050760;28;20491;-69
2022/07/10 01:10:15;;;;;;;5.20;3.28;;;;;;;21.76;58.34;98937.38;5054521;28;20068;-68
2022/07/10 01:12:41;;;;;;;4.85;3.75;;;;;;;21.74;58.67;98934.91;5055340;28;20056;-69
2022/07/10 01:15:08;;;;;;;5.63;2.83;;;;;;;21.74;58.41;98934.91;5055321;28;20041;-69
2022/07/10 01:17:35;;;;;;;3.28;2.97;;;;;;;21.78;58.41;98924.53;5055055;28;20033;-70
2022/07/10 01:20:08;;;;;;;6.35;3.65;;;;;;;21.79;58.53;98927.00;5054852;28;20124;-70
2022/07/10 01:22:36;;;;;;;5.15;3.42;;;;;;;21.78;58.51;98929.94;5055431;28;20087;-71
2022/07/10 01:25:02;;;;;;;5.43;3.45;;;;;;;21.77;58.62;98944.44;5055170;28;20040;-70
2022/07/10 01:27:27;;;;;;;6.10;3.60;;;;;;;21.74;58.45;98934.91;5054527;28;20041;-70
2022/07/10 01:29:54;;;;;;;8.25;3.67;;;;;;;21.75;58.66;98933.88;5054786;28;20398;-70
2022/07/10 01:32:19;;;;;;;4.63;3.38;;;;;;;21.78;58.55;98925.34;5054930;28;20044;-70
2022/07/10 01:34:46;;;;;;;7.03;3.80;;;;;;;21.77;58.89;98920.19;5054959;28;20512;-70
2022/07/10 01:37:12;;;;;;;5.40;4.05;;;;;;;21.78;58.62;98911.88;5053646;28;20510;-69
2022/07/10 01:39:38;;;;;;;5.13;3.75;;;;;;;21.79;58.35;98907.34;5055176;28;20032;-69
2022/07/10 01:42:04;;;;;;;4.97;3.65;;;;;;;21.77;58.46;98904.03;5054063;28;20063;-69
2022/07/10 01:44:29;;;;;;;6.78;4.57;;;;;;;21.78;58.96;98903.00;5055911;28;20475;-70
2022/07/10 01:46:54;;;;;;;4.70;3.83;;;;;;;21.77;58.94;98910.22;5054670;28;20063;-70
2022/07/10 01:49:20;;;;;;;4.65;3.08;;;;;;;21.75;58.85;98911.50;5054495;28;20510;-69
2022/07/10 01:51:45;;;;;;;6.50;3.83;;;;;;;21.74;58.75;98910.69;5054160;28;20166;-69
2022/07/10 01:54:11;;;;;;;5.50;3.13;;;;;;;21.73;58.99;98903.63;5055120;28;20110;-70
2022/07/10 01:56:38;;;;;;;7.00;4.05;;;;;;;21.74;59.15;98899.06;5054104;28;20029;-70
2022/07/10 01:59:04;;;;;;;5.30;3.90;;;;;;;21.70;59.23;98901.34;5054549;28;20411;-70
2022/07/10 02:01:30;;;;;;;6.75;3.70;;;;;;;21.70;59.40;98897.81;5052698;28;20036;-70
2022/07/10 02:06:40;;;;;;;6.25;3.63;;;;;;;21.64;59.13;98904.88;5054235;28;20048;-70
2022/07/10 02:09:05;;;;;;;5.00;3.25;;;;;;;21.72;59.29;98914.59;5054581;28;20040;-70
2022/07/10 02:11:30;;;;;;;5.57;3.85;;;;;;;21.74;58.82;98909.84;5054490;28;20448;-71
2022/07/10 02:13:56;;;;;;;9.68;3.13;;;;;;;21.75;58.92;98914.19;5054314;28;20033;-70
2022/07/10 02:16:21;;;;;;;5.82;3.38;;;;;;;21.71;58.87;98905.69;5053596;28;20047;-70
2022/07/10 02:18:47;;;;;;;4.97;3.00;;;;;;;21.72;58.89;98912.75;5053632;28;20049;-70
2022/07/10 02:21:12;;;;;;;9.23;3.83;;;;;;;21.71;58.97;98908.41;5054013;28;20087;-70
2022/07/10 02:23:40;;;;;;;3.90;2.92;;;;;;;21.67;59.06;98912.53;5054049;28;20467;-70
2022/07/10 02:26:06;;;;;;;4.70;3.05;;;;;;;21.68;59.16;98924.16;5053575;28;20029;-69
2022/07/10 02:28:32;;;;;;;6.85;2.97;;;;;;;21.68;59.17;98929.53;5053803;28;20040;-69
2022/07/10 02:30:58;;;;;;;5.05;3.78;;;;;;;21.72;59.13;98938.81;5053638;28;20040;-69
2022/07/10 02:33:24;;;;;;;5.03;3.00;;;;;;;21.78;59.25;98938.00;5053412;28;20491;-69
2022/07/10 02:35:49;;;;;;;8.48;3.72;;;;;;;21.90;59.03;98930.94;5053607;28;20041;-69
2022/07/10 02:38:15;;;;;;;5.05;3.22;;;;;;;22.05;58.69;98935.25;5054038;28;20060;-69
2022/07/10 02:40:40;;;;;;;4.60;3.13;;;;;;;22.14;58.31;98935.88;5053902;28;20543;-69
2022/07/10 02:43:06;;;;;;;4.30;3.10;;;;;;;22.13;58.73;98936.91;5052562;28;20396;-69
2022/07/10 02:45:31;;;;;;;6.30;3.60;;;;;;;22.14;58.61;98935.88;5053118;28;20036;-70
2022/07/10 02:47:56;;;;;;;7.38;4.78;;;;;;;22.14;58.44;98930.47;5052858;28;20415;-69
2022/07/10 02:50:22;;;;;;;6.13;3.70;;;;;;;22.13;58.41;98924.25;5052980;28;20087;-69
2022/07/10 02:52:48;;;;;;;6.40;3.47;;;;;;;22.15;58.35;98935.63;5052941;28;20040;-69
2022/07/10 02:55:13;;;;;;;6.35;3.85;;;;;;;22.17;58.49;98922.78;5053149;28;20621;-69
2022/07/10 02:57:38;;;;;;;5.88;3.47;;;;;;;22.17;58.80;98927.38;5052382;28;20387;-70
2022/07/10 03:00:05;;;;;;;5.35;3.28;;;;;;;22.17;58.87;98924.66;5052592;28;20515;-69
2022/07/10 03:02:30;;;;;;;5.13;3.28;;;;;;;22.21;58.78;98925.88;5053006;28;20395;-69
2022/07/10 03:04:56;;;;;;;4.90;2.88;;;;;;;22.24;58.61;98922.78;5052770;28;20029;-69
2022/07/10 03:07:21;;;;;;;5.85;2.88;;;;;;;22.23;58.50;98927.34;5052136;28;20025;-69
2022/07/10 03:09:46;;;;;;;5.65;2.75;;;;;;;22.23;58.40;98930.03;5052941;28;20070;-69
2022/07/10 03:12:12;;;;;;;4.32;2.67;;;;;;;22.25;58.30;98929.81;5053330;28;20072;-70
2022/07/10 03:14:37;;;;;;;10.15;2.80;;;;;;;22.25;58.24;98937.91;5052369;28;20079;-70
2022/07/10 03:17:03;;;;;;;3.08;2.63;;;;;;;22.27;58.47;98935.00;5052611;28;20040;-70
2022/07/10 03:19:28;;;;;;;4.22;2.78;;;;;;;22.28;58.55;98934.78;5052693;28;20049;-70
2022/07/10 03:21:54;;;;;;;4.95;3.78;;;;;;;22.30;58.93;98931.88;5052891;28;20029;-70
2022/07/10 03:24:19;;;;;;;7.50;4.13;;;;;;;22.30;59.09;98931.88;5052798;28;20040;-69
2022/07/10 03:26:45;;;;;;;5.80;3.10;;;;;;;22.30;58.65;98929.16;5051771;28;20028;-70
2022/07/10 03:29:10;;;;;;;4.70;3.03;;;;;;;22.30;58.36;98935.41;5052446;28;20029;-70
2022/07/10 03:31:36;;;;;;;4.32;2.70;;;;;;;22.28;58.60;98940.19;5052398;28;20037;-69
2022/07/10 03:34:01;;;;;;;3.92;3.30;;;;;;;22.23;59.13;98938.13;5052722;28;20031;-70
2022/07/10 03:36:27;;;;;;;3.95;2.92;;;;;;;22.19;59.07;98944.97;5053486;28;20099;-70
2022/07/10 03:38:52;;;;;;;4.53;3.50;;;;;;;22.20;59.03;98948.50;5052340;28;20509;-71
2022/07/10 03:41:18;;;;;;;7.18;2.92;;;;;;;22.20;58.45;98951.19;5035905;28;20029;-70
2022/07/10 03:43:43;;;;;;;6.57;3.97;;;;;;;22.21;58.80;98942.91;5052861;28;20549;-70
2022/07/10 03:46:09;;;;;;;7.20;4.03;;;;;;;22.19;58.75;98934.19;5051031;28;20063;-70
2022/07/10 03:48:34;;;;;;;7.50;3.33;;;;;;;22.21;58.45;98933.97;5052597;28;20025;-69
2022/07/10 03:51:01;;;;;;;7.03;3.70;;;;;;;22.21;58.53;98925.88;5052742;28;20127;-70
2022/07/10 03:53:27;;;;;;;9.45;3.78;;;;;;;22.21;58.69;98926.72;5051098;28;20048;-70
2022/07/10 03:55:53;;;;;;;5.72;3.40;;;;;;;22.21;58.31;98915.94;5052521;28;20037;-72
2022/07/10 03:58:19;;;;;;;7.90;3.67;;;;;;;22.20;57.98;98911.59;5051846;28;20033;-71
2022/07/10 04:00:45;;;;;;;11.15;4.45;;;;;;;22.21;57.91;98896.25;5051946;28;20483;-71
2022/07/10 04:03:10;;;;;;;6.38;3.88;;;;;;;22.22;57.65;98887.97;5052566;28;20505;-70
2022/07/10 04:05:36;;;;;;;4.72;3.80;;;;;;;22.19;57.20;98880.31;5052107;28;20442;-71
2022/07/10 04:08:03;;;;;;;8.32;3.53;;;;;;;22.20;57.03;98873.88;5051871;28;20041;-69
2022/07/10 04:10:29;;;;;;;6.57;3.13;;;;;;;22.22;56.77;98870.94;5052561;28;20155;-69
2022/07/10 04:12:55;;;;;;;8.38;3.75;;;;;;;22.28;56.59;98869.28;5050474;28;20407;-69
2022/07/10 04:15:21;;;;;;;8.15;4.28;;;;;;;22.32;56.36;98871.34;5052026;28;20036;-70
2022/07/10 04:17:51;;;;;;;5.78;3.55;;;;;;;22.35;56.49;98862.00;5051959;28;20079;-70
2022/07/10 04:20:17;;;;;;;5.03;3.55;;;;;;;22.40;56.42;98863.00;5052124;28;20057;-70
2022/07/10 04:22:44;;;;;;;8.70;4.50;;;;;;;22.45;56.34;98866.97;5052190;28;20075;-70
2022/07/10 04:25:10;;;;;;;8.20;4.40;;;;;;;22.48;56.53;98861.16;5052096;28;20090;-69
2022/07/10 04:27:35;;;;;;;7.50;3.38;;;;;;;22.54;55.94;98871.06;5051881;28;20068;-70
2022/07/10 04:30:03;;;;;;;4.30;3.10;;;;;;;22.58;55.54;98876.81;5036753;28;20531;-69
2022/07/10 04:32:28;;;;;;;6.95;3.83;;;;;;;22.65;55.49;98872.25;5032249;28;20411;-70
2022/07/10 04:34:55;;;;;;;7.32;3.80;;;;;;;22.73;55.62;98874.66;5032042;28;20029;-70
2022/07/10 04:37:20;;;;;;;8.90;4.45;;;;;;;22.75;55.74;98867.19;5043771;28;20040;-70
2022/07/10 04:39:46;;;;;;;5.68;2.67;;;;;;;22.82;55.26;98859.91;5051780;28;20438;-70
2022/07/10 04:42:11;;;;;;;6.85;3.63;;;;;;;22.90;54.90;98866.91;5051525;28;20029;-68
2022/07/10 04:44:37;;;;;;;4.85;4.38;;;;;;;22.93;54.89;98860.25;5053673;28;20153;-69
2022/07/10 04:47:03;;;;;;;8.48;4.88;;;;;;;22.93;55.26;98862.94;5055574;28;20549;-69
2022/07/10 04:49:29;;;;;;;5.97;3.97;;;;;;;22.95;54.84;98863.53;5056059;28;20110;-69
2022/07/10 04:51:56;;;;;;;9.93;4.78;;;;;;;23.00;54.84;98861.03;5055157;28;20475;-70
2022/07/10 04:54:22;;;;;;;5.00;4.18;;;;;;;23.06;54.75;98862.84;5055453;28;20036;-70
2022/07/10 04:56:47;;;;;;;6.18;4.00;;;;;;;23.12;54.98;98875.47;5055169;28;20044;-69
2022/07/10 04:59:13;;;;;;;7.50;4.80;;;;;;;23.20;54.79;98881.63;5055796;28;20043;-69
2022/07/10 05:01:38;;;;;;;8.48;4.13;;;;;;;23.31;54.17;98867.44;5054996;28;20068;-70
2022/07/10 05:04:04;;;;;;;8.73;4.90;;;;;;;23.47;53.90;98864.19;5055671;28;20048;-68
2022/07/10 05:06:30;;;;;;;10.98;4.75;;;;;;;23.64;53.89;98852.00;5054888;28;20076;-68
2022/07/10 05:08:55;;;;;;;11.00;4.72;;;;;;;23.66;53.88;98850.72;5055721;28;20032;-68
2022/07/10 05:11:21;;;;;;;7.10;4.30;;;;;;;23.67;53.43;98848.84;5054841;28;20553;-68
2022/07/10 05:13:48;;;;;;;6.07;5.47;;;;;;;23.65;53.30;98851.75;5059280;28;20115;-69
2022/07/10 05:16:17;;;;;;;8.48;5.18;;;;;;;23.64;53.40;98850.09;5063790;28;20480;-68
2022/07/10 05:18:43;;;;;;;6.35;4.50;;;;;;;23.72;53.34;98846.28;5054965;28;20520;-69
2022/07/10 05:21:09;;;;;;;7.38;5.30;;;;;;;23.86;52.84;98844.28;5055167;28;20040;-69
2022/07/10 05:23:35;;;;;;;8.75;5.57;;;;;;;23.83;52.80;98842.03;5055038;28;20102;-68
2022/07/10 05:26:00;;;;;;;7.65;5.30;;;;;;;23.75;53.12;98854.75;5054665;28;20412;-69
2022/07/10 05:28:26;;;;;;;10.40;5.07;;;;;;;23.77;52.77;98851.84;5055117;28;20032;-70
2022/07/10 05:30:51;;;;;;;11.30;5.55;;;;;;;23.77;52.92;98841.06;5054605;28;20036;-69
2022/07/10 05:33:17;;;;;;;7.63;5.30;;;;;;;23.80;53.44;98850.56;5053639;28;20037;-70
2022/07/10 05:35:43;;;;;;;9.93;5.32;;;;;;;23.79;53.73;98857.88;5054969;28;20083;-70
2022/07/10 05:38:08;;;;;;;14.75;12.65;;;;;;;23.77;53.13;98852.66;5055403;28;20067;-69
2022/07/10 05:40:34;;;;;;;10.88;9.30;;;;;;;23.95;53.27;98852.91;5051424;28;20032;-70
2022/07/10 05:42:59;;;;;;;14.15;12.05;;;;;;;24.38;52.45;98855.50;5053996;28;20556;-70
2022/07/10 05:45:25;;;;;;;8.82;7.20;;;;;;;24.63;51.63;98851.03;5054761;28;20115;-71
2022/07/10 05:47:51;;;;;;;11.13;6.93;;;;;;;24.89;51.00;98849.84;5054093;28;20074;-71
2022/07/10 05:50:16;;;;;;;13.90;6.82;;;;;;;24.96;51.11;98858.69;5054939;28;20369;-69
2022/07/10 05:52:42;;;;;;;14.75;7.25;;;;;;;24.81;51.32;98853.72;5054386;28;20036;-69
2022/07/10 05:55:08;;;;;;;10.43;6.88;;;;;;;24.89;51.44;98852.56;5053858;28;20067;-69
2022/07/10 05:57:34;;;;;;;17.50;8.45;;;;;;;25.07;51.06;98859.75;5054686;28;20377;-70
2022/07/10 05:59:59;;;;;;;10.10;7.72;;;;;;;25.16;50.63;98854.84;5054462;28;20040;-70
2022/07/10 06:02:25;;;;;;;10.98;8.35;;;;;;;25.16;50.65;98848.59;5053616;28;20484;-70
2022/07/10 06:04:50;;;;;;;11.85;6.80;;;;;;;25.19;50.67;98854.38;5054468;28;20052;-69
2022/07/10 06:07:16;;;;;;;22.05;8.27;;;;;;;25.14;50.92;98855.09;5054705;28;20048;-70
2022/07/10 06:09:42;;;;;;;8.98;7.20;;;;;;;25.08;51.33;98857.88;5053863;28;20043;-70
2022/07/10 06:12:08;;;;;;;11.65;7.15;;;;;;;24.88;51.83;98859.03;5054541;28;20095;-69
2022/07/10 06:14:33;;;;;;;8.70;6.85;;;;;;;25.02;52.06;98866.94;5054152;28;20045;-69
2022/07/10 06:16:59;;;;;;;10.18;7.43;;;;;;;25.13;51.72;98864.25;5036525;28;20037;-68
2022/07/10 06:19:24;;;;;;;8.25;6.82;;;;;;;25.02;52.32;98864.22;5035641;28;20052;-69
2022/07/10 06:22:30;;;;;;;12.90;7.35;;;;;;;24.89;51.97;98857.97;5054517;28;20044;-69
2022/07/10 06:24:35;;;;;;;10.20;6.35;;;;;;;24.75;52.72;98861.94;5053879;28;20029;-69
2022/07/10 06:27:00;;;;;;;13.10;7.38;;;;;;;24.72;52.30;98859.69;5054030;28;20032;-69
2022/07/10 06:29:26;;;;;;;9.18;7.30;;;;;;;24.72;52.15;98859.69;5053883;28;20071;-69
2022/07/10 06:31:51;;;;;;;13.52;8.10;;;;;;;24.70;52.46;98850.97;5053246;28;20027;-69
2022/07/10 06:34:17;;;;;;;10.00;6.68;;;;;;;24.63;52.73;98851.84;5053776;28;20174;-69
2022/07/10 06:36:42;;;;;;;15.70;8.68;;;;;;;24.52;53.00;98845.34;5053832;28;20510;-69
2022/07/10 06:39:08;;;;;;;11.65;7.18;;;;;;;24.50;53.11;98846.63;5053774;28;20131;-69
2022/07/10 06:41:33;;;;;;;9.57;6.53;;;;;;;24.46;53.45;98853.56;5053366;28;20392;-69
2022/07/10 06:44:00;;;;;;;11.32;7.10;;;;;;;24.49;53.29;98855.78;5053893;28;20404;-69
2022/07/10 06:46:26;;;;;;;12.15;7.68;;;;;;;24.49;53.63;98858.50;5068678;28;20376;-70
2022/07/10 06:48:52;;;;;;;13.27;6.85;;;;;;;24.51;53.29;98859.94;5053029;28;20040;-70
2022/07/10 06:51:17;;;;;;;15.45;7.93;;;;;;;24.51;53.25;98862.63;5053707;28;20032;-70
2022/07/10 06:53:43;;;;;;;10.32;7.60;;;;;;;24.53;53.19;98865.09;5053085;28;20035;-70
2022/07/10 06:56:09;;;;;;;7.93;6.15;;;;;;;24.49;53.09;98851.22;5052882;28;20483;-71
2022/07/10 06:58:34;;;;;;;12.68;7.00;;;;;;;24.65;53.34;98867.84;5051924;28;20391;-69
2022/07/10 07:00:59;;;;;;;9.88;6.63;;;;;;;24.68;53.27;98870.91;5051765;28;20515;-69
2022/07/10 07:03:25;;;;;;;12.05;7.28;;;;;;;24.70;52.79;98869.91;5053244;28;20385;-71
2022/07/10 07:05:50;;;;;;;7.95;6.38;;;;;;;24.61;52.56;98864.78;5053771;28;20025;-69
2022/07/10 07:08:16;;;;;;;7.43;6.15;;;;;;;24.64;52.48;98866.19;5052225;28;20077;-70
2022/07/10 07:10:41;;;;;;;8.05;6.03;;;;;;;24.73;52.68;98872.16;5052842;28;20075;-71
2022/07/10 07:13:09;;;;;;;12.38;5.95;;;;;;;24.82;52.58;98868.91;5052546;28;20043;-70
2022/07/10 07:15:38;;;;;;;9.63;6.43;;;;;;;24.89;52.21;98879.63;5053113;28;20025;-70
2022/07/10 07:18:15;;;;;;;12.98;7.93;;;;;;;24.96;52.29;98880.31;5052281;28;20032;-70
2022/07/10 07:23:25;;;;;;;8.82;6.82;;;;;;;25.04;52.32;98875.66;5053165;28;20040;-70
2022/07/10 07:25:51;;;;;;;9.60;7.68;;;;;;;25.07;52.67;98869.78;5052899;28;20037;-70
2022/07/10 07:28:21;;;;;;;11.73;8.15;;;;;;;25.11;52.13;98876.34;5052303;28;20037;-70
2022/07/10 07:30:47;;;;;;;9.55;6.72;;;;;;;25.09;52.22;98883.88;5051752;28;20479;-70
2022/07/10 07:33:13;;;;;;;14.70;7.65;;;;;;;25.08;52.45;98876.81;5052526;28;20033;-70
2022/07/10 07:35:39;;;;;;;11.25;7.00;;;;;;;25.09;52.23;98881.16;5052950;28;20044;-70
2022/07/10 07:38:08;;;;;;;9.77;5.82;;;;;;;25.13;52.06;98879.66;5052276;28;20036;-71
2022/07/10 07:40:34;;;;;;;10.32;6.38;;;;;;;25.17;51.82;98880.84;5052587;28;20498;-69
2022/07/10 07:43:00;;;;;;;7.90;6.00;;;;;;;25.21;51.75;98882.03;5052322;28;20075;-70
2022/07/10 07:45:26;;;;;;;8.95;6.63;;;;;;;25.26;51.62;98873.22;5051841;28;20032;-69
2022/07/10 07:47:59;;;;;;;11.63;6.38;;;;;;;25.30;51.47;98879.78;5051327;28;20029;-69
2022/07/10 07:50:26;;;;;;;7.50;6.70;;;;;;;25.29;51.54;98895.22;5044382;28;20422;-70
2022/07/10 07:52:52;;;;;;;11.15;7.65;;;;;;;25.28;51.76;98884.63;5051027;28;20033;-70
2022/07/10 07:55:20;;;;;;;12.07;7.00;;;;;;;25.27;51.59;98878.38;5052346;28;20055;-70
2022/07/10 07:57:46;;;;;;;11.27;6.68;;;;;;;25.26;51.61;98879.44;5051976;28;20037;-68
2022/07/10 08:00:13;;;;;;;9.20;7.00;;;;;;;25.26;51.31;98875.91;5052026;28;20116;-68
2022/07/10 08:02:39;;;;;;;11.00;6.45;;;;;;;25.25;51.42;98874.28;5050730;28;20025;-68
2022/07/10 08:05:05;;;;;;;7.55;6.22;;;;;;;25.23;51.45;98866.38;5051789;28;20048;-69
2022/07/10 08:07:39;;;;;;;9.95;6.45;;;;;;;25.21;51.23;98860.38;5051830;28;20036;-68
2022/07/10 08:10:07;;;;;;;11.98;6.13;;;;;;;25.23;50.90;98862.84;5051228;28;20500;-69
2022/07/10 08:12:33;;;;;;;9.23;6.35;;;;;;;25.24;51.06;98869.91;5051145;28;20140;-68
2022/07/10 08:14:59;;;;;;;8.50;6.40;;;;;;;25.26;50.93;98868.63;5051495;28;20043;-69
2022/07/10 08:17:25;;;;;;;14.25;8.13;;;;;;;25.28;50.99;98866.50;5050325;28;20040;-69
2022/07/10 08:19:50;;;;;;;7.68;6.80;;;;;;;25.29;50.64;98867.34;5055734;28;20420;-68
2022/07/10 08:22:16;;;;;;;12.45;5.40;;;;;;;25.32;50.85;98860.63;5056029;28;20033;-69
2022/07/10 08:24:41;;;;;;;11.98;5.95;;;;;;;25.35;51.04;98868.28;5056297;28;20383;-69
2022/07/10 08:27:08;;;;;;;7.25;6.03;;;;;;;25.38;50.44;98859.66;5055576;28;20237;-68
2022/07/10 08:29:33;;;;;;;6.63;5.70;;;;;;;25.41;50.27;98859.19;5055903;28;20037;-69
2022/07/10 08:31:59;;;;;;;8.30;5.22;;;;;;;25.44;50.27;98864.19;5054692;28;20037;-69
2022/07/10 08:34:25;;;;;;;8.55;6.60;;;;;;;25.46;50.27;98853.94;5055772;28;20119;-68
2022/07/10 08:36:50;;;;;;;11.40;6.28;;;;;;;25.50;50.18;98854.28;5055435;28;20052;-68
2022/07/10 08:39:16;;;;;;;7.97;6.07;;;;;;;25.51;49.92;98853.22;5053803;28;20120;-68
2022/07/10 08:41:45;;;;;;;10.07;6.30;;;;;;;25.51;49.95;98854.06;5055102;28;20472;-66
2022/07/10 08:44:11;;;;;;;7.65;5.55;;;;;;;25.55;50.04;98854.41;5056066;28;20487;-67
2022/07/10 08:46:37;;;;;;;11.10;5.30;;;;;;;25.57;50.00;98861.25;5056066;28;20079;-68
2022/07/10 08:49:08;;;;;;;7.28;5.22;;;;;;;25.62;49.71;98854.28;5055393;28;20040;-68
2022/07/10 08:51:41;;;;;;;6.88;5.00;;;;;;;25.66;49.96;98860.91;5055777;28;20086;-67
2022/07/10 08:54:08;;;;;;;7.75;6.47;;;;;;;25.69;50.38;98858.53;5055610;28;20048;-69
2022/07/10 08:56:34;;;;;;;13.95;6.05;;;;;;;25.70;50.09;98849.34;5053110;28;20028;-68
2022/07/10 08:59:02;;;;;;;6.72;5.80;;;;;;;25.70;49.76;98857.47;5053380;28;20496;-69
2022/07/10 09:01:28;;;;;;;12.15;5.35;;;;;;;25.69;49.34;98860.41;5055010;28;20578;-65
2022/07/10 09:03:53;;;;;;;6.07;4.63;;;;;;;25.66;48.95;98860.91;5054893;28;20021;-68
2022/07/10 09:06:19;;;;;;;9.15;4.80;;;;;;;25.64;48.86;98857.59;5055177;28;20601;-67
2022/07/10 09:09:11;;;;;;;7.93;4.95;;;;;;;25.59;48.25;98845.56;5055027;28;20043;-68
2022/07/10 09:11:40;;;;;;;9.27;4.88;;;;;;;25.57;48.31;98844.19;5053463;28;20072;-69
2022/07/10 09:14:13;;;;;;;7.60;4.75;;;;;;;25.56;48.52;98842.53;5053129;28;20044;-69
2022/07/10 09:16:40;;;;;;;8.60;4.78;;;;;;;25.56;48.86;98840.63;5054009;28;20041;-70
2022/07/10 09:19:26;;;;;;;9.55;4.68;;;;;;;25.57;48.90;98844.19;5054050;28;20114;-70
2022/07/10 09:21:54;;;;;;;11.27;5.70;;;;;;;25.57;49.53;98842.28;5054189;28;20476;-70
2022/07/10 09:24:20;;;;;;;7.07;5.07;;;;;;;25.57;48.97;98836.06;5054648;28;20029;-69
2022/07/10 09:26:54;;;;;;;6.53;4.70;;;;;;;25.60;49.49;98830.13;5051559;28;20499;-70
2022/07/10 09:29:20;;;;;;;7.20;4.78;;;;;;;25.60;49.51;98832.84;5053047;28;20033;-69
2022/07/10 09:31:56;;;;;;;11.32;5.00;;;;;;;25.62;49.85;98844.28;5054345;28;20059;-72
2022/07/10 09:34:42;;;;;;;9.27;4.40;;;;;;;25.62;49.91;98838.84;5054753;28;20068;-71
2022/07/10 09:37:33;;;;;;;6.40;4.20;;;;;;;25.62;48.93;98829.91;5054330;28;20470;-70
2022/07/10 09:40:04;;;;;;;9.73;4.60;;;;;;;25.62;49.11;98824.50;5052061;28;20045;-68
2022/07/10 09:42:37;;;;;;;10.65;3.90;;;;;;;25.64;49.07;98830.50;5054340;28;20365;-69
2022/07/10 09:45:18;;;;;;;7.07;3.72;;;;;;;25.67;48.83;98838.13;5053061;28;20040;-67
2022/07/10 09:47:52;;;;;;;5.97;4.03;;;;;;;25.66;49.09;98822.97;5053361;28;20515;-70
2022/07/10 09:50:31;;;;;;;8.13;4.22;;;;;;;25.67;49.11;98824.59;5054782;28;20045;-67
2022/07/10 09:52:59;;;;;;;8.10;3.92;;;;;;;25.69;48.68;98817.06;5053797;28;20033;-69
2022/07/10 09:55:27;;;;;;;5.97;3.38;;;;;;;25.69;48.53;98806.22;5054787;28;20029;-68
2022/07/10 09:57:55;;;;;;;7.82;3.80;;;;;;;25.70;48.06;98799.75;5052609;28;20120;-67
2022/07/10 10:00:25;;;;;;;6.60;3.42;;;;;;;25.68;47.70;98799.16;5050019;28;20031;-65
2022/07/10 10:03:00;;;;;;;5.57;3.85;;;;;;;25.68;47.62;98810.81;5053916;28;20395;-66
2022/07/10 10:05:37;;;;;;;5.38;4.15;;;;;;;25.69;47.53;98796.22;5053698;28;20029;-70
2022/07/10 10:08:17;;;;;;;6.63;3.45;;;;;;;25.70;47.36;98797.03;5052450;28;20036;-69
2022/07/10 10:10:50;;;;;;;5.05;3.47;;;;;;;25.70;47.37;98791.63;5052775;28;20037;-69
2022/07/10 10:13:21;;;;;;;7.38;3.63;;;;;;;25.72;47.52;98794.91;5052666;28;20063;-70
2022/07/10 10:15:51;;;;;;;6.00;3.97;;;;;;;25.73;47.49;98791.13;5034577;28;20144;-69
2022/07/10 10:18:29;;;;;;;7.03;4.20;;;;;;;25.73;47.42;98788.44;5044372;28;20464;-70
2022/07/10 10:20:56;;;;;;;7.15;3.95;;;;;;;25.73;47.44;98786.53;5048882;28;20448;-70
2022/07/10 10:23:24;;;;;;;4.50;3.50;;;;;;;25.76;47.42;98796.09;5051199;28;20028;-69
2022/07/10 10:25:53;;;;;;;4.45;3.25;;;;;;;25.78;47.20;98788.56;5053049;28;20029;-68
2022/07/10 10:28:23;;;;;;;4.65;3.50;;;;;;;25.78;47.30;98782.28;5052445;28;20044;-69
2022/07/10 10:30:51;;;;;;;5.00;3.45;;;;;;;25.81;47.29;98787.25;5052811;28;20033;-68
2022/07/10 10:33:31;;;;;;;4.45;3.10;;;;;;;25.82;47.15;98789.69;5053155;28;20131;-68
2022/07/10 10:36:04;;;;;;;11.27;3.65;;;;;;;25.82;47.39;98778.06;5054367;28;20041;-68
2022/07/10 10:38:47;;;;;;;5.30;3.22;;;;;;;25.82;47.14;98778.84;5039310;28;20041;-68
2022/07/10 10:41:27;;;;;;;4.25;2.97;;;;;;;25.82;46.99;98787.00;5036328;28;20048;-68
2022/07/10 10:44:19;;;;;;;4.00;3.08;;;;;;;25.83;46.20;98785.94;5052585;28;20403;-69
2022/07/10 10:46:54;;;;;;;7.32;3.67;;;;;;;25.83;46.33;98780.50;5052913;28;20040;-67
2022/07/10 10:49:25;;;;;;;7.13;3.22;;;;;;;25.84;46.30;98784.88;5051340;28;20036;-67
2022/07/10 10:52:13;;;;;;;5.20;3.10;;;;;;;25.85;46.28;98791.94;5048436;28;20044;-67
2022/07/10 10:55:12;;;;;;;6.93;3.53;;;;;;;25.86;46.22;98785.44;5050283;28;20127;-67
2022/07/10 10:57:43;;;;;;;4.45;2.95;;;;;;;25.88;46.40;98791.47;5018208;28;20056;-67
2022/07/10 11:00:12;;;;;;;11.40;3.75;;;;;;;25.89;46.65;98798.53;5051796;28;20418;-68
2022/07/10 11:02:41;;;;;;;6.05;3.42;;;;;;;25.88;46.66;98783.34;5042927;28;20446;-68
2022/07/10 11:05:19;;;;;;;2.95;2.63;;;;;;;25.92;46.50;98782.84;5048974;28;20037;-68
2022/07/10 11:08:06;;;;;;;6.75;2.97;;;;;;;25.92;46.82;98789.09;5051347;28;20048;-67
2022/07/10 11:13:34;;;;;;;4.05;2.80;;;;;;;25.90;46.60;98783.91;5019705;22;20081;-70
2022/07/10 11:16:01;;;;;;;6.85;3.15;;;;;;;25.93;46.52;98787.22;5013348;28;20107;-69
2022/07/10 11:18:28;;;;;;;5.50;2.58;;;;;;;25.93;46.35;98784.50;5013204;28;20445;-69
2022/07/10 11:20:54;;;;;;;3.78;2.65;;;;;;;25.94;46.30;98797.00;5007568;28;20026;-69
2022/07/10 11:23:41;;;;;;;5.47;2.92;;;;;;;25.97;46.28;98791.06;5010130;28;20565;-70
2022/07/10 11:26:10;;;;;;;5.00;2.65;;;;;;;25.97;46.25;98791.06;5013509;28;20050;-68
2022/07/10 11:28:58;;;;;;;8.55;3.00;;;;;;;25.98;46.24;98792.72;5012463;28;20580;-67
2022/07/10 11:31:26;;;;;;;4.90;3.10;;;;;;;25.98;46.12;98792.72;5011841;28;20025;-68
2022/07/10 11:33:53;;;;;;;7.35;2.92;;;;;;;25.98;46.25;98798.13;4999566;28;20405;-67
2022/07/10 11:36:25;;;;;;;6.45;3.42;;;;;;;26.00;46.32;98799.56;5005084;28;20030;-67
2022/07/10 11:38:58;;;;;;;6.93;4.00;;;;;;;26.00;46.23;98796.00;4999343;28;20034;-68
2022/07/10 11:41:24;;;;;;;6.43;2.78;;;;;;;25.99;46.30;98795.22;5003271;28;20038;-68
2022/07/10 11:43:54;;;;;;;5.53;3.08;;;;;;;26.00;46.43;98791.44;5013338;28;20042;-68